createdAt,value
2018-12-29T00:01:42.785Z,7.86
2018-12-29T00:04:12.457Z,7.94
2018-12-29T00:06:42.255Z,7.99
2018-12-29T00:09:11.957Z,7.95
2018-12-29T00:11:41.666Z,7.88
2018-12-29T00:14:11.543Z,7.94
2018-12-29T00:16:41.302Z,7.85
2018-12-29T00:19:10.986Z,8.00
2018-12-29T00:21:40.701Z,8.09
2018-12-29T00:24:10.516Z,8.09
2018-12-29T00:26:40.319Z,8.12
2018-12-29T00:29:10.099Z,7.94
2018-12-29T00:31:39.771Z,7.87
2018-12-29T00:34:09.485Z,7.73
2018-12-29T00:36:39.269Z,8.00
2018-12-29T00:39:09.062Z,8.01
2018-12-29T00:41:38.763Z,8.02
2018-12-29T00:44:08.570Z,7.87
2018-12-29T00:46:38.372Z,8.00
2018-12-29T00:49:08.056Z,7.92
2018-12-29T00:51:37.819Z,7.87
2018-12-29T00:54:07.530Z,7.79
2018-12-29T00:56:37.217Z,7.93
2018-12-29T00:59:06.887Z,7.86
2018-12-29T01:01:36.667Z,7.83
2018-12-29T01:04:06.373Z,7.83
2018-12-29T01:06:36.176Z,7.81
2018-12-29T01:09:07.551Z,7.89
2018-12-29T01:11:37.327Z,7.89
2018-12-29T01:14:07.071Z,7.86
2018-12-29T01:16:36.811Z,7.67
2018-12-29T01:19:06.578Z,7.77
2018-12-29T01:21:36.443Z,7.77
2018-12-29T01:24:06.164Z,7.78
2018-12-29T01:26:35.841Z,7.96
2018-12-29T01:29:05.612Z,7.83
2018-12-29T01:31:35.353Z,7.64
2018-12-29T01:34:05.202Z,7.62
2018-12-29T01:36:36.580Z,7.69
2018-12-29T01:39:07.218Z,7.89
2018-12-29T01:41:37.064Z,8.04
2018-12-29T01:44:06.901Z,7.89
2018-12-29T01:46:36.809Z,7.77
2018-12-29T01:49:06.506Z,7.84
2018-12-29T01:51:36.591Z,7.66
2018-12-29T01:54:06.447Z,7.73
2018-12-29T01:56:36.167Z,7.88
2018-12-29T01:59:05.952Z,7.83
2018-12-29T02:01:35.697Z,7.53
2018-12-29T02:04:05.480Z,7.70
2018-12-29T02:06:35.636Z,7.70
2018-12-29T02:09:06.429Z,7.63
2018-12-29T02:11:36.308Z,7.67
2018-12-29T02:14:06.035Z,7.76
2018-12-29T02:16:35.804Z,7.80
2018-12-29T02:19:05.508Z,7.70
2018-12-29T02:21:35.251Z,7.87
2018-12-29T02:24:05.109Z,7.81
2018-12-29T02:26:34.822Z,7.77
2018-12-29T02:29:04.618Z,7.72
2018-12-29T02:31:34.377Z,7.77
2018-12-29T02:34:04.234Z,7.86
2018-12-29T02:36:34.034Z,7.83
2018-12-29T02:39:04.774Z,7.77
2018-12-29T02:41:34.527Z,7.87
2018-12-29T02:44:04.285Z,7.94
2018-12-29T02:46:34.238Z,7.95
2018-12-29T02:49:04.029Z,7.74
2018-12-29T02:51:33.790Z,7.85
2018-12-29T02:54:03.536Z,7.88
2018-12-29T02:56:33.249Z,7.75
2018-12-29T02:59:03.069Z,7.69
2018-12-29T03:01:32.845Z,7.90
2018-12-29T03:04:02.613Z,7.91
2018-12-29T03:06:32.421Z,7.90
2018-12-29T03:09:02.231Z,7.78
2018-12-29T03:11:32.015Z,7.89
2018-12-29T03:14:01.764Z,7.80
2018-12-29T03:16:31.467Z,7.97
2018-12-29T03:19:01.169Z,7.94
2018-12-29T03:21:30.850Z,7.95
2018-12-29T03:24:00.528Z,7.97
2018-12-29T03:26:30.274Z,8.00
2018-12-29T03:28:59.960Z,8.03
2018-12-29T03:31:29.637Z,8.00
2018-12-29T03:33:59.333Z,8.06
2018-12-29T03:36:29.048Z,8.01
2018-12-29T03:38:58.734Z,8.13
2018-12-29T03:41:28.494Z,7.78
2018-12-29T03:43:58.234Z,7.99
2018-12-29T03:46:28.022Z,8.03
2018-12-29T03:48:57.706Z,7.85
2018-12-29T03:51:27.426Z,7.81
2018-12-29T03:53:57.215Z,7.75
2018-12-29T03:56:26.952Z,7.76
2018-12-29T03:58:56.743Z,7.81
2018-12-29T04:01:26.547Z,7.96
2018-12-29T04:03:56.398Z,8.03
2018-12-29T04:06:26.185Z,7.92
2018-12-29T04:09:33.093Z,8.00
2018-12-29T04:12:06.098Z,8.07
2018-12-29T04:14:36.212Z,7.90
2018-12-29T04:17:06.164Z,7.84
2018-12-29T04:19:35.933Z,7.83
2018-12-29T04:22:05.734Z,7.93
2018-12-29T04:24:35.394Z,7.85
2018-12-29T04:27:05.179Z,7.85
2018-12-29T04:29:34.980Z,7.86
2018-12-29T04:32:05.033Z,7.82
2018-12-29T04:34:34.716Z,7.99
2018-12-29T04:37:04.509Z,7.88
2018-12-29T04:39:34.304Z,7.81
2018-12-29T04:42:04.115Z,7.81
2018-12-29T04:44:33.842Z,7.98
2018-12-29T04:47:03.679Z,7.85
2018-12-29T04:49:33.395Z,7.87
2018-12-29T04:52:03.083Z,7.84
2018-12-29T04:54:32.870Z,7.88
2018-12-29T04:57:02.670Z,7.96
2018-12-29T04:59:32.428Z,7.95
2018-12-29T05:02:02.190Z,7.85
2018-12-29T05:04:31.946Z,7.92
2018-12-29T05:07:01.635Z,8.01
2018-12-29T05:09:31.343Z,8.00
2018-12-29T05:12:01.055Z,7.97
2018-12-29T05:14:30.829Z,7.96
2018-12-29T05:17:00.514Z,7.89
2018-12-29T05:19:30.315Z,7.88
2018-12-29T05:22:00.028Z,7.92
2018-12-29T05:24:29.721Z,7.96
2018-12-29T05:26:59.424Z,7.95
2018-12-29T05:29:29.118Z,7.97
2018-12-29T05:31:58.835Z,7.95
2018-12-29T05:34:28.609Z,7.90
2018-12-29T05:36:58.353Z,7.91
2018-12-29T05:39:28.115Z,7.98
2018-12-29T05:41:57.831Z,7.83
2018-12-29T05:44:27.513Z,8.03
2018-12-29T05:46:57.307Z,7.85
2018-12-29T05:49:27.061Z,7.89
2018-12-29T05:51:56.775Z,7.89
2018-12-29T05:54:26.553Z,7.97
2018-12-29T05:56:56.252Z,7.97
2018-12-29T05:59:25.934Z,7.86
2018-12-29T06:01:55.647Z,7.99
2018-12-29T06:04:25.449Z,7.92
2018-12-29T06:06:55.168Z,7.93
2018-12-29T06:09:24.916Z,8.03
2018-12-29T06:11:54.638Z,7.86
2018-12-29T06:14:24.470Z,7.92
2018-12-29T06:16:54.267Z,7.95
2018-12-29T06:19:23.938Z,8.01
2018-12-29T06:21:53.618Z,8.06
2018-12-29T06:24:23.374Z,8.10
2018-12-29T06:26:53.086Z,8.03
2018-12-29T06:29:22.972Z,7.96
2018-12-29T06:31:52.649Z,8.05
2018-12-29T06:34:22.430Z,8.10
2018-12-29T06:36:52.148Z,8.09
2018-12-29T06:39:21.909Z,8.11
2018-12-29T06:41:51.594Z,8.16
2018-12-29T06:44:21.317Z,8.08
2018-12-29T06:46:51.074Z,8.07
2018-12-29T06:49:20.766Z,8.03
2018-12-29T06:51:50.567Z,8.06
2018-12-29T06:54:20.260Z,8.08
2018-12-29T06:56:49.991Z,8.07
2018-12-29T06:59:19.772Z,8.00
2018-12-29T07:01:49.462Z,7.92
2018-12-29T07:04:19.258Z,8.01
2018-12-29T07:06:48.939Z,8.07
2018-12-29T07:09:18.629Z,7.95
2018-12-29T07:11:48.493Z,7.92
2018-12-29T07:14:18.180Z,7.92
2018-12-29T07:16:47.926Z,7.94
2018-12-29T07:19:17.636Z,7.90
2018-12-29T07:21:47.381Z,8.02
2018-12-29T07:24:17.074Z,8.03
2018-12-29T07:26:46.782Z,7.93
2018-12-29T07:29:16.537Z,7.98
2018-12-29T07:31:46.273Z,7.98
2018-12-29T07:34:15.955Z,8.05
2018-12-29T07:36:45.655Z,8.03
2018-12-29T07:39:15.438Z,7.90
2018-12-29T07:41:45.128Z,8.04
2018-12-29T07:44:14.824Z,7.98
2018-12-29T07:46:49.615Z,8.01
2018-12-29T07:49:16.104Z,8.11
2018-12-29T07:51:45.791Z,8.12
2018-12-29T07:54:15.588Z,8.09
2018-12-29T07:56:45.338Z,8.11
2018-12-29T07:59:15.110Z,8.08
2018-12-29T08:01:44.798Z,8.15
2018-12-29T08:04:14.632Z,8.18
2018-12-29T08:06:45.208Z,8.15
2018-12-29T08:09:15.055Z,8.17
2018-12-29T08:11:44.811Z,8.17
2018-12-29T08:14:14.525Z,8.23
2018-12-29T08:16:44.228Z,8.25
2018-12-29T08:19:13.931Z,8.35
2018-12-29T08:21:43.597Z,8.39
2018-12-29T08:24:13.351Z,8.33
2018-12-29T08:26:43.069Z,8.39
2018-12-29T08:29:12.824Z,8.28
2018-12-29T08:31:42.631Z,8.35
2018-12-29T08:34:12.487Z,8.27
2018-12-29T08:36:42.189Z,8.35
2018-12-29T08:39:11.907Z,8.26
2018-12-29T08:41:41.877Z,8.34
2018-12-29T08:44:11.840Z,8.33
2018-12-29T08:46:41.605Z,8.43
2018-12-29T08:49:11.366Z,8.33
2018-12-29T08:51:41.280Z,8.37
2018-12-29T08:54:10.981Z,8.55
2018-12-29T08:56:40.971Z,8.31
2018-12-29T08:59:10.754Z,8.41
2018-12-29T09:01:40.881Z,8.37
2018-12-29T09:04:10.607Z,8.42
2018-12-29T09:06:40.309Z,8.46
2018-12-29T09:09:10.020Z,8.55
2018-12-29T09:11:39.786Z,8.49
2018-12-29T09:14:09.630Z,8.59
2018-12-29T09:16:39.340Z,8.52
2018-12-29T09:19:09.388Z,8.55
2018-12-29T09:21:39.117Z,8.61
2018-12-29T09:24:09.254Z,8.70
2018-12-29T09:26:38.951Z,8.60
2018-12-29T09:29:08.647Z,8.52
2018-12-29T09:31:38.419Z,8.54
2018-12-29T09:34:08.197Z,8.59
2018-12-29T09:36:37.955Z,8.59
2018-12-29T09:39:08.384Z,8.65
2018-12-29T09:41:38.180Z,8.50
2018-12-29T09:44:07.967Z,8.57
2018-12-29T09:46:37.789Z,8.71
2018-12-29T09:49:07.654Z,8.67
2018-12-29T09:51:37.421Z,8.62
2018-12-29T09:54:07.121Z,8.71
2018-12-29T09:56:36.879Z,8.60
2018-12-29T09:59:06.585Z,8.71
2018-12-29T10:01:36.282Z,8.68
2018-12-29T10:04:06.101Z,8.78
2018-12-29T10:06:35.806Z,8.69
2018-12-29T10:09:07.301Z,8.65
2018-12-29T10:11:36.991Z,8.81
2018-12-29T10:14:06.725Z,8.80
2018-12-29T10:16:36.536Z,8.79
2018-12-29T10:19:06.595Z,8.79
2018-12-29T10:21:36.372Z,8.79
2018-12-29T10:24:06.153Z,8.80
2018-12-29T10:26:35.825Z,8.78
2018-12-29T10:29:05.511Z,8.77
2018-12-29T10:31:35.265Z,8.94
2018-12-29T10:34:05.050Z,8.96
2018-12-29T10:36:34.832Z,8.97
2018-12-29T10:39:06.963Z,9.02
2018-12-29T10:41:36.679Z,8.88
2018-12-29T10:44:06.580Z,8.85
2018-12-29T10:46:36.285Z,8.81
2018-12-29T10:49:07.544Z,8.85
2018-12-29T10:51:37.267Z,8.88
2018-12-29T10:54:06.957Z,8.87
2018-12-29T10:56:36.760Z,8.90
2018-12-29T10:59:06.436Z,9.09
2018-12-29T11:01:36.149Z,9.03
2018-12-29T11:04:05.859Z,9.03
2018-12-29T11:06:35.681Z,8.89
2018-12-29T11:09:07.396Z,8.89
2018-12-29T11:11:37.113Z,9.01
2018-12-29T11:14:06.772Z,8.96
2018-12-29T11:16:38.959Z,8.95
2018-12-29T11:19:08.725Z,9.01
2018-12-29T11:21:38.406Z,9.07
2018-12-29T11:24:08.135Z,8.95
2018-12-29T11:26:37.815Z,8.96
2018-12-29T11:29:07.553Z,9.01
2018-12-29T11:31:37.205Z,9.10
2018-12-29T11:34:06.901Z,9.02
2018-12-29T11:36:36.587Z,9.06
2018-12-29T11:39:07.512Z,9.02
2018-12-29T11:41:37.303Z,8.92
2018-12-29T11:44:07.064Z,8.83
2018-12-29T11:46:36.804Z,8.95
2018-12-29T11:49:06.584Z,8.91
2018-12-29T11:51:36.277Z,8.90
2018-12-29T11:54:05.969Z,9.11
2018-12-29T11:56:35.653Z,9.02
2018-12-29T11:59:05.440Z,8.90
2018-12-29T12:01:35.110Z,8.94
2018-12-29T12:04:04.880Z,9.00
2018-12-29T12:06:34.656Z,8.74
2018-12-29T12:09:05.680Z,9.02
2018-12-29T12:11:35.383Z,9.06
2018-12-29T12:14:05.160Z,8.97
2018-12-29T12:16:34.915Z,9.04
2018-12-29T12:19:04.674Z,9.00
2018-12-29T12:21:34.348Z,8.89
2018-12-29T12:24:04.116Z,9.07
2018-12-29T12:26:33.886Z,9.19
2018-12-29T12:29:03.582Z,9.09
2018-12-29T12:31:33.661Z,8.97
2018-12-29T12:34:03.326Z,8.99
2018-12-29T12:36:33.410Z,9.11
2018-12-29T12:39:03.338Z,9.10
2018-12-29T12:41:33.476Z,9.28
2018-12-29T12:44:03.578Z,8.94
2018-12-29T12:46:33.384Z,9.01
2018-12-29T12:49:03.441Z,9.09
2018-12-29T12:51:33.163Z,9.01
2018-12-29T12:54:05.870Z,8.85
2018-12-29T12:56:35.564Z,8.84
2018-12-29T12:59:05.627Z,8.94
2018-12-29T13:01:35.317Z,8.85
2018-12-29T13:04:05.103Z,8.91
2018-12-29T13:06:34.765Z,8.74
2018-12-29T13:09:06.192Z,8.87
2018-12-29T13:11:35.926Z,8.77
2018-12-29T13:14:05.668Z,9.01
2018-12-29T13:16:35.376Z,9.11
2018-12-29T13:19:05.119Z,9.01
2018-12-29T13:21:35.195Z,8.94
2018-12-29T13:24:04.940Z,8.96
2018-12-29T13:26:34.604Z,9.05
2018-12-29T13:29:04.407Z,9.10
2018-12-29T13:31:34.129Z,8.87
2018-12-29T13:34:03.811Z,9.03
2018-12-29T13:36:33.510Z,8.88
2018-12-29T13:39:03.492Z,9.00
2018-12-29T13:41:33.296Z,8.91
2018-12-29T13:44:02.983Z,8.79
2018-12-29T13:46:32.676Z,8.83
2018-12-29T13:49:02.480Z,8.92
2018-12-29T13:51:32.234Z,8.95
2018-12-29T13:54:01.919Z,8.85
2018-12-29T13:56:31.732Z,8.86
2018-12-29T13:59:01.499Z,8.97
2018-12-29T14:01:31.210Z,8.91
2018-12-29T14:04:00.898Z,8.93
2018-12-29T14:06:30.571Z,8.86
2018-12-29T14:09:00.729Z,8.92
2018-12-29T14:11:30.487Z,8.96
2018-12-29T14:14:00.205Z,8.85
2018-12-29T14:16:29.902Z,8.88
2018-12-29T14:18:59.678Z,8.97
2018-12-29T14:21:29.458Z,8.83
2018-12-29T14:23:59.194Z,8.99
2018-12-29T14:26:28.964Z,8.95
2018-12-29T14:28:58.617Z,9.01
2018-12-29T14:31:28.341Z,8.79
2018-12-29T14:33:58.046Z,8.80
2018-12-29T14:36:27.823Z,8.95
2018-12-29T14:38:57.530Z,8.79
2018-12-29T14:41:27.396Z,8.76
2018-12-29T14:43:57.099Z,8.70
2018-12-29T14:46:26.919Z,8.92
2018-12-29T14:48:56.672Z,8.83
2018-12-29T14:51:26.458Z,8.85
2018-12-29T14:53:56.161Z,8.94
2018-12-29T14:56:25.898Z,8.85
2018-12-29T14:58:55.611Z,8.91
2018-12-29T15:01:25.326Z,8.86
2018-12-29T15:03:55.585Z,8.83
2018-12-29T15:06:25.302Z,8.79
2018-12-29T15:08:55.061Z,8.94
2018-12-29T15:11:24.918Z,8.88
2018-12-29T15:13:54.712Z,8.59
2018-12-29T15:16:24.462Z,8.73
2018-12-29T15:18:54.254Z,8.72
2018-12-29T15:21:24.130Z,8.64
2018-12-29T15:23:53.944Z,8.70
2018-12-29T15:26:25.315Z,8.56
2018-12-29T15:28:55.054Z,8.57
2018-12-29T15:31:24.751Z,8.51
2018-12-29T15:33:54.664Z,8.54
2018-12-29T15:36:24.921Z,8.62
2018-12-29T15:38:54.672Z,8.50
2018-12-29T15:41:24.353Z,8.59
2018-12-29T15:43:54.489Z,8.69
2018-12-29T15:46:24.282Z,8.61
2018-12-29T15:48:54.080Z,8.53
2018-12-29T15:51:24.310Z,8.58
2018-12-29T15:53:54.110Z,8.61
2018-12-29T15:56:24.189Z,8.62
2018-12-29T15:58:53.890Z,8.46
2018-12-29T16:01:23.954Z,8.53
2018-12-29T16:03:53.699Z,8.51
2018-12-29T16:06:23.405Z,8.40
2018-12-29T16:08:53.084Z,8.36
2018-12-29T16:11:26.536Z,8.44
2018-12-29T16:13:54.484Z,8.36
2018-12-29T16:16:24.202Z,8.44
2018-12-29T16:18:58.820Z,8.23
2018-12-29T16:21:25.503Z,8.35
2018-12-29T16:23:55.512Z,8.24
2018-12-29T16:26:25.396Z,8.36
2018-12-29T16:28:55.154Z,8.42
2018-12-29T16:31:24.967Z,8.30
2018-12-29T16:33:54.702Z,8.34
2018-12-29T16:36:24.373Z,8.35
2018-12-29T16:38:54.093Z,8.45
2018-12-29T16:41:23.880Z,8.41
2018-12-29T16:43:54.076Z,8.33
2018-12-29T16:46:23.855Z,8.25
2018-12-29T16:48:53.589Z,8.31
2018-12-29T16:51:23.373Z,8.37
2018-12-29T16:53:53.095Z,8.46
2018-12-29T16:56:22.819Z,8.41
2018-12-29T16:58:52.549Z,8.40
2018-12-29T17:01:25.360Z,8.29
2018-12-29T17:03:55.152Z,8.36
2018-12-29T17:06:25.005Z,8.24
2018-12-29T17:08:54.686Z,8.24
2018-12-29T17:11:24.364Z,8.44
2018-12-29T17:13:54.157Z,8.34
2018-12-29T17:16:23.856Z,8.47
2018-12-29T17:18:53.539Z,8.30
2018-12-29T17:21:23.307Z,8.37
2018-12-29T17:23:53.365Z,8.39
2018-12-29T17:26:23.063Z,8.33
2018-12-29T17:28:52.774Z,8.40
2018-12-29T17:31:22.763Z,8.29
2018-12-29T17:33:52.447Z,8.44
2018-12-29T17:36:22.178Z,8.41
2018-12-29T17:38:51.887Z,8.46
2018-12-29T17:41:21.661Z,8.45
2018-12-29T17:43:51.618Z,8.54
2018-12-29T17:46:21.328Z,8.44
2018-12-29T17:48:51.113Z,8.53
2018-12-29T17:51:20.913Z,8.56
2018-12-29T17:53:50.646Z,8.52
2018-12-29T17:56:20.724Z,8.51
2018-12-29T17:58:50.422Z,8.61
2018-12-29T18:01:20.098Z,8.60
2018-12-29T18:03:49.888Z,8.43
2018-12-29T18:06:19.585Z,8.49
2018-12-29T18:08:49.434Z,8.53
2018-12-29T18:11:19.191Z,8.57
2018-12-29T18:13:48.888Z,8.56
2018-12-29T18:16:18.962Z,8.54
2018-12-29T18:18:48.674Z,8.67
2018-12-29T18:21:18.372Z,8.62
2018-12-29T18:23:48.081Z,8.64
2018-12-29T18:26:18.177Z,8.66
2018-12-29T18:28:47.944Z,8.66
2018-12-29T18:31:17.612Z,8.65
2018-12-29T18:33:47.395Z,8.64
2018-12-29T18:36:17.161Z,8.64
2018-12-29T18:38:47.250Z,8.62
2018-12-29T18:41:17.011Z,8.66
2018-12-29T18:43:46.702Z,8.79
2018-12-29T18:46:16.416Z,8.76
2018-12-29T18:48:46.203Z,8.66
2018-12-29T18:51:15.962Z,8.69
2018-12-29T18:53:45.958Z,8.62
2018-12-29T18:56:15.967Z,8.64
2018-12-29T18:58:45.967Z,8.71
2018-12-29T19:01:15.741Z,8.66
2018-12-29T19:03:45.604Z,8.81
2018-12-29T19:06:15.367Z,8.66
2018-12-29T19:08:48.378Z,8.67
2018-12-29T19:11:18.100Z,8.62
2018-12-29T19:13:48.484Z,8.76
2018-12-29T19:16:18.616Z,8.66
2018-12-29T19:18:48.414Z,8.75
2018-12-29T19:21:18.648Z,8.75
2018-12-29T19:23:50.059Z,8.75
2018-12-29T19:26:20.254Z,8.74
2018-12-29T19:28:50.127Z,8.79
2018-12-29T19:31:20.400Z,8.81
2018-12-29T19:33:50.083Z,8.88
2018-12-29T19:36:19.829Z,8.84
2018-12-29T19:38:49.806Z,9.00
2018-12-29T19:41:19.487Z,8.89
2018-12-29T19:43:49.753Z,8.96
2018-12-29T19:46:19.855Z,8.96
2018-12-29T19:48:49.618Z,8.84
2018-12-29T19:51:19.332Z,8.85
2018-12-29T19:53:49.424Z,8.88
2018-12-29T19:56:19.204Z,8.91
2018-12-29T19:58:49.035Z,8.99
2018-12-29T20:01:18.783Z,8.95
2018-12-29T20:03:48.787Z,9.06
2018-12-29T20:06:18.819Z,8.95
2018-12-29T20:08:48.530Z,8.90
2018-12-29T20:11:18.244Z,8.98
2018-12-29T20:13:48.022Z,9.01
2018-12-29T20:16:17.793Z,9.05
2018-12-29T20:18:47.635Z,9.07
2018-12-29T20:21:17.506Z,9.03
2018-12-29T20:23:47.334Z,8.97
2018-12-29T20:26:17.081Z,9.08
2018-12-29T20:28:46.857Z,9.04
2018-12-29T20:31:16.669Z,9.06
2018-12-29T20:33:46.430Z,9.05
2018-12-29T20:36:16.130Z,9.06
2018-12-29T20:38:46.622Z,9.02
2018-12-29T20:41:16.933Z,9.01
2018-12-29T20:43:46.789Z,8.98
2018-12-29T20:46:16.486Z,9.04
2018-12-29T20:48:46.266Z,9.04
2018-12-29T20:51:16.127Z,9.03
2018-12-29T20:53:45.813Z,9.03
2018-12-29T20:56:15.474Z,9.10
2018-12-29T20:58:45.178Z,9.12
2018-12-29T21:01:14.865Z,9.08
2018-12-29T21:03:44.596Z,9.12
2018-12-29T21:06:14.649Z,8.96
2018-12-29T21:08:44.767Z,8.99
2018-12-29T21:11:14.436Z,8.90
2018-12-29T21:13:44.485Z,8.99
2018-12-29T21:16:14.250Z,9.00
2018-12-29T21:18:44.405Z,9.00
2018-12-29T21:21:14.401Z,9.06
2018-12-29T21:23:44.251Z,9.06
2018-12-29T21:26:13.979Z,9.04
2018-12-29T21:28:44.082Z,8.98
2018-12-29T21:31:13.913Z,8.91
2018-12-29T21:33:43.867Z,8.91
2018-12-29T21:36:13.603Z,8.93
2018-12-29T21:38:43.348Z,8.92
2018-12-29T21:41:13.053Z,8.82
2018-12-29T21:43:42.849Z,8.90
2018-12-29T21:46:12.570Z,8.95
2018-12-29T21:48:42.284Z,8.89
2018-12-29T21:51:12.005Z,8.88
2018-12-29T21:53:41.686Z,8.88
2018-12-29T21:56:11.365Z,8.80
2018-12-29T21:58:41.076Z,8.73
2018-12-29T22:01:10.836Z,8.80
2018-12-29T22:03:40.686Z,8.79
2018-12-29T22:06:10.467Z,8.83
2018-12-29T22:08:40.170Z,8.77
2018-12-29T22:11:10.149Z,8.81
2018-12-29T22:13:39.903Z,8.86
2018-12-29T22:16:09.815Z,8.78
2018-12-29T22:18:39.523Z,8.86
2018-12-29T22:21:09.223Z,8.85
2018-12-29T22:23:39.273Z,8.72
2018-12-29T22:26:08.960Z,8.78
2018-12-29T22:28:38.686Z,8.77
2018-12-29T22:31:08.557Z,8.78
2018-12-29T22:33:38.226Z,8.69
2018-12-29T22:36:08.262Z,8.75
2018-12-29T22:38:37.963Z,8.80
2018-12-29T22:41:07.858Z,8.79
2018-12-29T22:43:37.564Z,8.77
2018-12-29T22:46:07.275Z,8.81
2018-12-29T22:48:37.117Z,8.97
2018-12-29T22:51:06.824Z,8.93
2018-12-29T22:53:36.489Z,8.83
2018-12-29T22:56:06.323Z,8.89
2018-12-29T22:58:36.026Z,8.84
2018-12-29T23:01:06.484Z,8.89
2018-12-29T23:03:36.930Z,8.89
2018-12-29T23:06:06.969Z,8.83
2018-12-29T23:08:36.643Z,8.84
2018-12-29T23:11:06.760Z,8.76
2018-12-29T23:13:36.488Z,8.85
2018-12-29T23:16:06.443Z,8.84
2018-12-29T23:18:36.128Z,8.87
2018-12-29T23:21:06.011Z,8.93
2018-12-29T23:23:37.871Z,8.86
2018-12-29T23:26:14.176Z,8.88
2018-12-29T23:28:48.659Z,8.88
2018-12-29T23:31:23.038Z,8.95
2018-12-29T23:33:58.333Z,8.92
2018-12-29T23:36:28.811Z,9.01
2018-12-29T23:38:58.631Z,8.91
2018-12-29T23:41:28.308Z,8.99
2018-12-29T23:43:58.068Z,8.98
2018-12-29T23:46:27.777Z,8.97
2018-12-29T23:48:57.459Z,9.02
2018-12-29T23:51:27.227Z,8.96
2018-12-29T23:53:56.914Z,8.92
2018-12-29T23:56:27.011Z,8.96
2018-12-29T23:58:56.727Z,8.92
